• Join FlightAware (Why Join?)
  • Login
  • US Flag 
02:26AM EDT


 

Airport Tracker/Info


-or-


 

Live Flight TrackerFlight Track Log ✈ FLG3432 ✈ 11-May-2013 ✈ KALB - KMSP

Flight Track Log - Related Links

Times and Time Zones

All times are in EDT time to prevent confusion due to time zone crossing. See the FLG3432 flight status page for this flight to view local times or setup timezone preferences in your user account.

Time Position Orientation Groundspeed Altitude Reporting Facility
EDT Latitude Longitude Course Direction KTS MPH feet Rate Location/Type
06:32AM 42.7297 -73.8081 284° West 145 167 1,100  Level Boston Center
06:33AM 42.7022 -73.8442 224° Southwest 204 235 3,300 2,100 Climbing Boston Center
06:34AM 42.7600 -73.9022 324° Northwest 257 296 5,700 2,400 Climbing Boston Center
06:35AM 42.8319 -74.3242 282° West  Level FlightAware Approximate
06:35AM 42.8175 -73.9631 322° Northwest 262 302 8,300  Level Boston Center
06:36AM 42.8541 -74.4577 283° West  Level FlightAware Approximate
06:36AM 42.8792 -74.0239 324° Northwest 267 307 11,000  Level Boston Center
06:37AM 42.8867 -74.5852 284° West  Level FlightAware Approximate
06:37AM 42.9367 -74.0850 322° Northwest 286 329 12,200  Level Boston Center
06:38AM 43.0186 -74.1722 322° Northwest 320 368 14,300 1,980 Climbing Boston Center
06:39AM 43.0883 -74.2453 323° Northwest 349 402 16,200 1,800 Climbing Boston Center
06:40AM 43.1133 -74.3797 284° West 321 369 18,000 1,800 Climbing Boston Center
06:41AM 43.1172 -74.5136 272° West 342 394 19,800 1,680 Climbing Boston Center
06:42AM 43.1231 -74.6506 273° West 355 409 21,400 1,500 Climbing Boston Center
06:43AM 43.1264 -74.7900 272° West 365 420 22,900 1,500 Climbing Boston Center
06:44AM 43.1297 -74.9322 272° West 370 426 24,400 1,380 Climbing Boston Center
06:45AM 43.1347 -75.0778 273° West 375 432 25,700 1,320 Climbing Boston Center
06:46AM 43.1397 -75.2231 273° West 375 432 27,100 1,320 Climbing Boston Center
06:47AM 43.1422 -75.3711 271° West 386 444 28,400 1,020 Climbing Boston Center
06:48AM 43.1450 -75.5022 272° West 386 444 29,200 1,020 Climbing Boston Center
06:49AM 43.1492 -75.6533 272° West 386 444 30,500 1,500 Climbing Boston Center
06:50AM 43.1533 -75.7958 272° West 386 444 32,200 1,440 Climbing Boston Center
06:51AM 43.1556 -75.9356 271° West 381 438 33,400 660 Climbing Boston Center
06:53AM 43.1594 -76.1656 271° West 376 433 34,000 180 Climbing Cleveland Center
06:54AM 43.1525 -76.3142 266° West 388 447 34,000  Level Cleveland Center
06:55AM 43.1414 -76.4628 264° West 394 453 34,000  Level Cleveland Center
06:56AM 43.1258 -76.6119 262° West 394 453 34,000  Level Cleveland Center
06:57AM 43.1139 -76.7550 264° West 394 453 34,000  Level Cleveland Center
06:58AM 43.1000 -76.9064 263° West 394 453 34,000 300 Level Cleveland Center
06:59AM 43.0858 -77.0522 262° West 394 453 34,700 960 Climbing Cleveland Center
07:00AM 43.0733 -77.1925 263° West 383 441 36,000 600 Climbing Cleveland Center
07:01AM 43.0606 -77.3322 263° West 378 435 36,000  Level Cleveland Center
07:02AM 43.0481 -77.4778 263° West 378 435 36,000  Level Cleveland Center
07:03AM 43.0331 -77.6208 262° West 383 441 36,000  Level Cleveland Center
07:04AM 43.0194 -77.7519 262° West 393 452 36,000  Level Cleveland Center
07:05AM 43.0083 -77.8944 264° West 388 447 36,000  Level Cleveland Center
07:06AM 42.9928 -78.0372 262° West 388 447 36,000  Level Cleveland Center
07:07AM 42.9792 -78.1767 262° West 388 447 36,000  Level Cleveland Center
07:08AM 42.9653 -78.3192 262° West 388 447 36,000  Level Cleveland Center
07:09AM 42.9492 -78.4586 261° West 388 447 36,000  Level Cleveland Center
07:10AM 42.9372 -78.6067 264° West 393 452 36,000  Level Cleveland Center
07:11AM 42.9625 -78.7478 284° West 384 442 36,000  Level Cleveland Center
07:12AM 43.0064 -78.8911 293° West 395 455 36,000  Level Cleveland Center
07:12AM 43.0167 -78.9500 283° West 410 472 36,000  Level Toronto Center
07:13AM 43.0667 -79.0833 297° West 410 472 36,000  Level Toronto Center
07:14AM 43.1000 -79.2167 289° West 410 472 36,000  Level Toronto Center
07:15AM 43.1500 -79.3667 295° West 410 472 36,000  Level Toronto Center
07:16AM 43.1833 -79.5167 287° West 410 472 36,000  Level Toronto Center
07:17AM 43.2167 -79.6833 285° West 410 472 36,000  Level Toronto Center
07:18AM 43.2500 -79.8333 287° West 410 472 36,000  Level Toronto Center
07:19AM 43.2667 -79.9833 279° West 420 483 36,000  Level Toronto Center
07:20AM 43.3000 -80.1333 287° West 420 483 36,000  Level Toronto Center
07:21AM 43.3333 -80.3000 285° West 420 483 36,000  Level Toronto Center
07:22AM 43.3667 -80.4333 289° West 420 483 36,000  Level Toronto Center
07:23AM 43.4000 -80.6000 285° West 420 483 36,000  Level Toronto Center
07:24AM 43.4167 -80.7333 280° West 410 472 36,000  Level Toronto Center
07:25AM 43.4333 -80.9000 278° West 410 472 36,000  Level Toronto Center
07:26AM 43.4667 -81.0500 287° West 420 483 36,000  Level Toronto Center
07:27AM 43.5000 -81.2167 285° West 410 472 36,000  Level Toronto Center
07:28AM 43.5333 -81.3500 289° West 410 472 36,000  Level Toronto Center
07:29AM 43.5500 -81.5167 278° West 410 472 36,000  Level Toronto Center
07:30AM 43.5833 -81.6667 287° West 400 460 36,000  Level Toronto Center
07:31AM 43.6167 -81.8000 289° West 410 472 36,000  Level Toronto Center
07:32AM 43.6333 -81.9667 278° West 410 472 36,000  Level Toronto Center
07:33AM 43.6500 -82.1167 279° West 410 472 36,000  Level Toronto Center
07:34AM 43.6833 -82.2833 286° West 420 483 36,000  Level Toronto Center
07:35AM 43.7167 -82.4167 289° West 410 472 36,000  Level Toronto Center
07:36AM 43.7500 -82.5833 286° West 410 472 36,000  Level Toronto Center
07:37AM 43.7667 -82.7333 279° West 400 460 36,000  Level Toronto Center
07:38AM 43.7833 -82.8833 279° West 400 460 36,000  Level Toronto Center
07:39AM 43.8167 -83.0333 287° West 400 460 36,000  Level Toronto Center
07:40AM 43.8500 -83.2000 286° West 410 472 36,000  Level Toronto Center
07:40AM 43.8578 -83.2150 306° West 407 468 36,000  Level Minneapolis Center
07:41AM 43.8814 -83.3703 282° West 412 474 36,000  Level Minneapolis Center
07:42AM 43.9125 -83.5503 284° West 413 475 36,000  Level Minneapolis Center
07:43AM 43.9369 -83.7083 282° West 417 480 36,000  Level Minneapolis Center
07:44AM 43.9617 -83.8644 282° West 416 479 36,000  Level Minneapolis Center
07:45AM 43.9867 -84.0178 283° West 411 473 36,000  Level Minneapolis Center
07:46AM 44.0097 -84.1661 282° West 398 458 36,000  Level Minneapolis Center
07:47AM 44.0331 -84.3117 283° West 389 448 36,000  Level Minneapolis Center
07:48AM 44.0542 -84.4561 282° West 384 442 36,000  Level Minneapolis Center
07:49AM 44.0764 -84.5994 282° West 380 437 36,000  Level Minneapolis Center
07:50AM 44.0978 -84.7467 281° West 386 444 36,000  Level Minneapolis Center
07:51AM 44.1200 -84.8967 282° West 392 451 36,000  Level Minneapolis Center
07:52AM 44.1431 -85.0461 282° West 394 453 36,000  Level Minneapolis Center
07:53AM 44.1661 -85.1956 282° West 395 455 36,000  Level Minneapolis Center
07:54AM 44.1869 -85.3467 281° West 396 456 36,000  Level Minneapolis Center
07:56AM 44.2078 -85.4972 281° West 396 456 36,000  Level Minneapolis Center
07:57AM 44.2286 -85.6458 281° West 394 453 36,000  Level Minneapolis Center
07:58AM 44.2489 -85.7928 281° West 389 448 36,000  Level Minneapolis Center
07:59AM 44.2739 -85.9731 281° West 392 451 36,000  Level Minneapolis Center
08:00AM 44.2950 -86.1253 281° West 397 457 36,000  Level Minneapolis Center
08:01AM 44.3153 -86.2797 280° West 403 464 36,000  Level Minneapolis Center
08:02AM 44.3356 -86.4317 281° West 398 458 36,000  Level Minneapolis Center
08:03AM 44.3553 -86.5847 280° West 398 458 36,000  Level Minneapolis Center
08:04AM 44.3761 -86.7381 281° West 401 461 36,000  Level Minneapolis Center
08:05AM 44.3961 -86.8906 280° West 399 459 36,000  Level Minneapolis Center
08:06AM 44.4181 -87.0711 280° West 394 453 36,000  Level Minneapolis Center
08:07AM 44.4361 -87.2072 281° West 393 452 36,000  Level Minneapolis Center
08:08AM 44.4558 -87.3731 280° West 395 455 36,000  Level Minneapolis Center
08:09AM 44.4750 -87.5242 280° West 395 455 36,000  Level Minneapolis Center
08:10AM 44.4933 -87.6775 280° West 398 458 36,000  Level Minneapolis Center
08:11AM 44.5131 -87.8325 280° West 402 463 36,000  Level Minneapolis Center
08:12AM 44.5281 -87.9717 279° West 401 461 36,000 -60 Level Minneapolis Center
08:13AM 44.5497 -88.1483 280° West 396 456 35,900 -600 Descending Minneapolis Center
08:14AM 44.5669 -88.2994 279° West 395 455 34,800 -1,080 Descending Minneapolis Center
08:15AM 44.5839 -88.4439 279° West 380 437 33,800 -1,020 Descending Minneapolis Center
08:16AM 44.5997 -88.5767 280° West 353 406 32,800 -900 Descending Minneapolis Center
08:17AM 44.6156 -88.7100 280° West 348 400 32,000 -420 Descending Minneapolis Center
08:18AM 44.6311 -88.8564 279° West 373 429 32,000  Level Minneapolis Center
08:19AM 44.6494 -89.0075 280° West 389 448 32,000  Level Minneapolis Center
08:20AM 44.6656 -89.1569 279° West 388 447 32,000  Level Minneapolis Center
08:21AM 44.6811 -89.3022 279° West 381 438 32,000  Level Minneapolis Center
08:22AM 44.6969 -89.4458 279° West 373 429 32,000  Level Minneapolis Center
08:23AM 44.7122 -89.5914 278° West 375 432 32,000  Level Minneapolis Center
08:24AM 44.7278 -89.7392 278° West 381 438 32,000  Level Minneapolis Center
08:25AM 44.7433 -89.8853 279° West 379 436 32,000  Level Minneapolis Center
08:26AM 44.7589 -90.0333 278° West 382 440 32,000  Level Minneapolis Center
08:27AM 44.7736 -90.1803 278° West 380 437 32,000  Level Minneapolis Center
08:28AM 44.7903 -90.3506 278° West 379 436 32,000 -60 Level Minneapolis Center
08:29AM 44.8053 -90.4958 278° West 376 433 31,900 -780 Descending Minneapolis Center
08:30AM 44.8172 -90.6233 278° West 373 429 30,500 -1,500 Descending Minneapolis Center
08:31AM 44.8311 -90.7664 278° West 370 426 28,900 -1,560 Descending Minneapolis Center
08:32AM 44.8444 -90.9003 278° West 352 405 27,400 -1,620 Descending Minneapolis Center
08:33AM 44.8578 -91.0514 277° West 336 387 25,700 -1,620 Descending Minneapolis Center
08:34AM 44.8689 -91.1769 277° West 329 379 24,200 -1,500 Descending Minneapolis Center
08:35AM 44.8797 -91.2972 277° West 321 369 22,700 -1,500 Descending Minneapolis Center
08:36AM 44.8900 -91.4128 277° West 309 356 21,200 -1,500 Descending Minneapolis Center
08:37AM 44.9031 -91.5253 279° West 296 341 19,700 -1,500 Descending Minneapolis Center
08:38AM 44.9292 -91.6417 288° West 306 352 18,200 -1,500 Descending Minneapolis Center
08:39AM 44.9497 -91.7533 285° West 299 344 16,700 -1,500 Descending Minneapolis Center
08:40AM 44.9717 -91.8672 285° West 302 348 15,200 -1,380 Descending Minneapolis Center
08:41AM 44.9919 -91.9806 284° West 299 344 13,900 -1,320 Descending Minneapolis Center
08:42AM 45.0125 -92.0919 285° West 295 339 12,600 -1,260 Descending Minneapolis Center
08:43AM 45.0333 -92.2019 285° West 292 336 11,400 -840 Descending Minneapolis Center
08:44AM 45.0408 -92.3383 274° West 295 339 10,900 -480 Descending Minneapolis Center
08:45AM 45.0197 -92.4464 255° West 284 327 10,500 -1,140 Descending Minneapolis Center
08:46AM 44.9742 -92.5336 234° Southwest 275 316 8,600 -1,680 Descending Minneapolis Center
08:47AM 44.9300 -92.6197 234° Southwest 272 313 7,200 -840 Descending Minneapolis Center
08:48AM 44.8875 -92.7039 235° Southwest 265 305 7,000 -120 Descending Minneapolis Center
08:49AM 44.8439 -92.7881 234° Southwest 266 306 7,000 -300 Level Minneapolis Center
08:50AM 44.8197 -92.8603 245° Southwest 195 224 6,400 -1,020 Descending Minneapolis Center
08:51AM 44.8158 -92.9314 266° West 182 209 5,000 -1,440 Descending Minneapolis Center
08:53AM 44.8169 -92.9986 271° West 174 200 3,500 -1,500 Descending Minneapolis Center